sensor_id;sensor_type;location;lat;lon;timestamp;P1;durP1;ratioP1;P2;durP2;ratioP2
22026;SDS011;11177;50.966;10.070;2023-07-08T00:01:17;5.78;;;2.95;;
22026;SDS011;11177;50.966;10.070;2023-07-08T00:03:46;5.57;;;2.78;;
22026;SDS011;11177;50.966;10.070;2023-07-08T00:06:17;3.88;;;2.75;;
22026;SDS011;11177;50.966;10.070;2023-07-08T00:08:46;5.10;;;2.78;;
22026;SDS011;11177;50.966;10.070;2023-07-08T00:11:14;4.00;;;2.75;;
22026;SDS011;11177;50.966;10.070;2023-07-08T00:13:42;8.10;;;3.15;;
22026;SDS011;11177;50.966;10.070;2023-07-08T00:16:15;8.20;;;3.20;;
22026;SDS011;11177;50.966;10.070;2023-07-08T00:18:44;5.15;;;2.90;;
22026;SDS011;11177;50.966;10.070;2023-07-08T00:21:12;4.47;;;2.80;;
22026;SDS011;11177;50.966;10.070;2023-07-08T00:23:51;4.35;;;2.70;;
22026;SDS011;11177;50.966;10.070;2023-07-08T00:26:22;4.95;;;3.00;;
22026;SDS011;11177;50.966;10.070;2023-07-08T00:28:51;8.60;;;3.47;;
22026;SDS011;11177;50.966;10.070;2023-07-08T00:31:18;3.83;;;3.15;;
22026;SDS011;11177;50.966;10.070;2023-07-08T00:33:52;4.65;;;2.97;;
22026;SDS011;11177;50.966;10.070;2023-07-08T00:36:23;6.00;;;3.10;;
22026;SDS011;11177;50.966;10.070;2023-07-08T00:38:52;9.18;;;3.20;;
22026;SDS011;11177;50.966;10.070;2023-07-08T00:41:24;4.25;;;3.47;;
22026;SDS011;11177;50.966;10.070;2023-07-08T00:43:55;5.47;;;3.50;;
22026;SDS011;11177;50.966;10.070;2023-07-08T00:52:25;6.15;;;3.75;;
22026;SDS011;11177;50.966;10.070;2023-07-08T00:54:54;5.45;;;3.38;;
22026;SDS011;11177;50.966;10.070;2023-07-08T00:57:25;4.20;;;3.50;;
22026;SDS011;11177;50.966;10.070;2023-07-08T00:59:57;4.55;;;3.40;;
22026;SDS011;11177;50.966;10.070;2023-07-08T01:02:31;5.72;;;3.47;;
22026;SDS011;11177;50.966;10.070;2023-07-08T01:05:01;6.28;;;3.70;;
22026;SDS011;11177;50.966;10.070;2023-07-08T01:07:32;5.00;;;3.67;;
22026;SDS011;11177;50.966;10.070;2023-07-08T01:10:04;6.45;;;3.13;;
22026;SDS011;11177;50.966;10.070;2023-07-08T01:12:35;7.13;;;3.90;;
22026;SDS011;11177;50.966;10.070;2023-07-08T01:15:04;8.75;;;3.85;;
22026;SDS011;11177;50.966;10.070;2023-07-08T01:17:32;5.00;;;3.58;;
22026;SDS011;11177;50.966;10.070;2023-07-08T01:20:00;4.22;;;3.30;;
22026;SDS011;11177;50.966;10.070;2023-07-08T01:22:31;6.93;;;3.22;;
22026;SDS011;11177;50.966;10.070;2023-07-08T01:25:02;6.50;;;3.80;;
22026;SDS011;11177;50.966;10.070;2023-07-08T01:27:34;5.20;;;3.50;;
22026;SDS011;11177;50.966;10.070;2023-07-08T01:30:02;6.15;;;3.50;;
22026;SDS011;11177;50.966;10.070;2023-07-08T01:32:30;5.03;;;3.67;;
22026;SDS011;11177;50.966;10.070;2023-07-08T01:34:59;8.98;;;3.70;;
22026;SDS011;11177;50.966;10.070;2023-07-08T01:37:28;6.10;;;3.88;;
22026;SDS011;11177;50.966;10.070;2023-07-08T01:39:57;6.60;;;3.85;;
22026;SDS011;11177;50.966;10.070;2023-07-08T01:42:24;6.05;;;4.30;;
22026;SDS011;11177;50.966;10.070;2023-07-08T01:44:50;5.05;;;3.83;;
22026;SDS011;11177;50.966;10.070;2023-07-08T01:47:19;4.82;;;3.63;;
22026;SDS011;11177;50.966;10.070;2023-07-08T01:49:47;5.05;;;3.50;;
22026;SDS011;11177;50.966;10.070;2023-07-08T01:52:15;3.75;;;3.33;;
22026;SDS011;11177;50.966;10.070;2023-07-08T01:54:43;4.38;;;3.40;;
22026;SDS011;11177;50.966;10.070;2023-07-08T01:57:10;6.43;;;3.67;;
22026;SDS011;11177;50.966;10.070;2023-07-08T01:59:37;7.07;;;3.25;;
22026;SDS011;11177;50.966;10.070;2023-07-08T02:02:04;5.78;;;3.65;;
22026;SDS011;11177;50.966;10.070;2023-07-08T02:04:31;5.60;;;3.70;;
22026;SDS011;11177;50.966;10.070;2023-07-08T02:06:59;7.95;;;3.80;;
22026;SDS011;11177;50.966;10.070;2023-07-08T02:09:26;4.40;;;3.63;;
22026;SDS011;11177;50.966;10.070;2023-07-08T02:11:54;4.85;;;3.47;;
22026;SDS011;11177;50.966;10.070;2023-07-08T02:14:21;5.40;;;3.50;;
22026;SDS011;11177;50.966;10.070;2023-07-08T02:16:48;6.03;;;3.78;;
22026;SDS011;11177;50.966;10.070;2023-07-08T02:19:15;5.75;;;4.00;;
22026;SDS011;11177;50.966;10.070;2023-07-08T02:21:42;4.22;;;3.55;;
22026;SDS011;11177;50.966;10.070;2023-07-08T02:24:09;5.68;;;4.13;;
22026;SDS011;11177;50.966;10.070;2023-07-08T02:26:36;7.35;;;3.83;;
22026;SDS011;11177;50.966;10.070;2023-07-08T02:29:03;6.38;;;3.95;;
22026;SDS011;11177;50.966;10.070;2023-07-08T02:31:30;4.22;;;3.75;;
22026;SDS011;11177;50.966;10.070;2023-07-08T02:33:57;7.07;;;3.78;;
22026;SDS011;11177;50.966;10.070;2023-07-08T02:36:24;6.63;;;3.95;;
22026;SDS011;11177;50.966;10.070;2023-07-08T02:38:50;4.10;;;3.60;;
22026;SDS011;11177;50.966;10.070;2023-07-08T02:41:17;6.95;;;3.95;;
22026;SDS011;11177;50.966;10.070;2023-07-08T02:43:44;4.93;;;3.95;;
22026;SDS011;11177;50.966;10.070;2023-07-08T02:46:11;4.90;;;3.60;;
22026;SDS011;11177;50.966;10.070;2023-07-08T02:48:38;5.78;;;3.90;;
22026;SDS011;11177;50.966;10.070;2023-07-08T02:51:05;4.50;;;3.92;;
22026;SDS011;11177;50.966;10.070;2023-07-08T02:53:32;5.95;;;4.20;;
22026;SDS011;11177;50.966;10.070;2023-07-08T02:55:59;7.68;;;4.22;;
22026;SDS011;11177;50.966;10.070;2023-07-08T02:58:26;5.80;;;3.78;;
22026;SDS011;11177;50.966;10.070;2023-07-08T03:00:56;5.32;;;4.30;;
22026;SDS011;11177;50.966;10.070;2023-07-08T03:03:28;9.23;;;4.03;;
22026;SDS011;11177;50.966;10.070;2023-07-08T03:05:59;4.40;;;3.92;;
22026;SDS011;11177;50.966;10.070;2023-07-08T03:08:28;6.50;;;4.10;;
22026;SDS011;11177;50.966;10.070;2023-07-08T03:10:56;7.25;;;3.92;;
22026;SDS011;11177;50.966;10.070;2023-07-08T03:13:25;6.45;;;4.20;;
22026;SDS011;11177;50.966;10.070;2023-07-08T03:15:53;6.45;;;4.25;;
22026;SDS011;11177;50.966;10.070;2023-07-08T03:18:21;6.72;;;4.57;;
22026;SDS011;11177;50.966;10.070;2023-07-08T03:20:50;6.70;;;4.45;;
22026;SDS011;11177;50.966;10.070;2023-07-08T03:23:16;8.80;;;4.20;;
22026;SDS011;11177;50.966;10.070;2023-07-08T03:25:43;6.43;;;4.28;;
22026;SDS011;11177;50.966;10.070;2023-07-08T03:28:10;7.90;;;4.50;;
22026;SDS011;11177;50.966;10.070;2023-07-08T03:30:41;5.78;;;4.22;;
22026;SDS011;11177;50.966;10.070;2023-07-08T03:33:09;4.82;;;4.13;;
22026;SDS011;11177;50.966;10.070;2023-07-08T03:35:37;6.82;;;4.40;;
22026;SDS011;11177;50.966;10.070;2023-07-08T03:38:05;8.82;;;4.72;;
22026;SDS011;11177;50.966;10.070;2023-07-08T03:40:31;6.90;;;4.35;;
22026;SDS011;11177;50.966;10.070;2023-07-08T03:42:58;9.55;;;4.78;;
22026;SDS011;11177;50.966;10.070;2023-07-08T03:45:25;5.30;;;4.22;;
22026;SDS011;11177;50.966;10.070;2023-07-08T03:47:53;5.22;;;4.40;;
22026;SDS011;11177;50.966;10.070;2023-07-08T03:50:21;6.50;;;4.43;;
22026;SDS011;11177;50.966;10.070;2023-07-08T03:52:49;8.55;;;4.55;;
22026;SDS011;11177;50.966;10.070;2023-07-08T03:55:17;7.00;;;4.28;;
22026;SDS011;11177;50.966;10.070;2023-07-08T03:57:44;6.95;;;4.63;;
22026;SDS011;11177;50.966;10.070;2023-07-08T04:00:11;6.35;;;4.38;;
22026;SDS011;11177;50.966;10.070;2023-07-08T04:02:39;6.65;;;4.15;;
22026;SDS011;11177;50.966;10.070;2023-07-08T04:05:10;6.20;;;4.15;;
22026;SDS011;11177;50.966;10.070;2023-07-08T04:07:40;7.85;;;4.85;;
22026;SDS011;11177;50.966;10.070;2023-07-08T04:10:07;4.35;;;3.60;;
22026;SDS011;11177;50.966;10.070;2023-07-08T04:12:35;5.82;;;4.20;;
22026;SDS011;11177;50.966;10.070;2023-07-08T04:15:03;7.45;;;4.07;;
22026;SDS011;11177;50.966;10.070;2023-07-08T04:17:30;8.25;;;4.25;;
22026;SDS011;11177;50.966;10.070;2023-07-08T04:19:57;5.25;;;4.18;;
22026;SDS011;11177;50.966;10.070;2023-07-08T04:22:24;5.53;;;4.35;;
22026;SDS011;11177;50.966;10.070;2023-07-08T04:24:50;6.47;;;4.18;;
22026;SDS011;11177;50.966;10.070;2023-07-08T04:27:17;7.20;;;4.20;;
22026;SDS011;11177;50.966;10.070;2023-07-08T04:29:44;9.40;;;4.45;;
22026;SDS011;11177;50.966;10.070;2023-07-08T04:32:11;5.40;;;3.95;;
22026;SDS011;11177;50.966;10.070;2023-07-08T04:34:38;4.68;;;4.15;;
22026;SDS011;11177;50.966;10.070;2023-07-08T04:37:04;5.30;;;4.20;;
22026;SDS011;11177;50.966;10.070;2023-07-08T04:39:32;6.85;;;4.50;;
22026;SDS011;11177;50.966;10.070;2023-07-08T04:41:59;5.45;;;4.70;;
22026;SDS011;11177;50.966;10.070;2023-07-08T04:44:26;5.47;;;4.30;;
22026;SDS011;11177;50.966;10.070;2023-07-08T04:46:56;4.45;;;4.05;;
22026;SDS011;11177;50.966;10.070;2023-07-08T04:49:24;5.05;;;4.20;;
22026;SDS011;11177;50.966;10.070;2023-07-08T04:51:51;9.90;;;4.75;;
22026;SDS011;11177;50.966;10.070;2023-07-08T04:54:18;8.50;;;4.68;;
22026;SDS011;11177;50.966;10.070;2023-07-08T04:56:47;7.40;;;4.32;;
22026;SDS011;11177;50.966;10.070;2023-07-08T04:59:16;5.43;;;4.47;;
22026;SDS011;11177;50.966;10.070;2023-07-08T05:01:44;8.02;;;4.68;;
22026;SDS011;11177;50.966;10.070;2023-07-08T05:04:16;6.70;;;4.70;;
22026;SDS011;11177;50.966;10.070;2023-07-08T05:06:43;5.55;;;4.80;;
22026;SDS011;11177;50.966;10.070;2023-07-08T05:09:10;9.20;;;5.40;;
22026;SDS011;11177;50.966;10.070;2023-07-08T05:11:40;6.47;;;5.25;;
22026;SDS011;11177;50.966;10.070;2023-07-08T05:14:07;10.52;;;5.03;;
22026;SDS011;11177;50.966;10.070;2023-07-08T05:16:34;5.78;;;4.60;;
22026;SDS011;11177;50.966;10.070;2023-07-08T05:19:02;7.78;;;4.75;;
22026;SDS011;11177;50.966;10.070;2023-07-08T05:21:30;6.63;;;4.93;;
22026;SDS011;11177;50.966;10.070;2023-07-08T05:24:00;9.90;;;4.80;;
22026;SDS011;11177;50.966;10.070;2023-07-08T05:26:28;6.85;;;4.75;;
22026;SDS011;11177;50.966;10.070;2023-07-08T05:28:55;6.82;;;4.57;;
22026;SDS011;11177;50.966;10.070;2023-07-08T05:31:21;5.78;;;4.25;;
22026;SDS011;11177;50.966;10.070;2023-07-08T05:34:03;7.25;;;4.60;;
22026;SDS011;11177;50.966;10.070;2023-07-08T05:36:30;6.85;;;4.70;;
22026;SDS011;11177;50.966;10.070;2023-07-08T05:38:57;9.52;;;4.88;;
22026;SDS011;11177;50.966;10.070;2023-07-08T05:41:23;8.20;;;5.00;;
22026;SDS011;11177;50.966;10.070;2023-07-08T05:43:50;6.60;;;4.85;;
22026;SDS011;11177;50.966;10.070;2023-07-08T05:46:17;8.18;;;4.70;;
22026;SDS011;11177;50.966;10.070;2023-07-08T05:48:44;5.70;;;4.32;;
22026;SDS011;11177;50.966;10.070;2023-07-08T05:51:11;4.97;;;4.45;;
22026;SDS011;11177;50.966;10.070;2023-07-08T05:53:38;7.60;;;4.60;;
22026;SDS011;11177;50.966;10.070;2023-07-08T05:56:05;7.90;;;4.65;;
22026;SDS011;11177;50.966;10.070;2023-07-08T05:58:31;8.88;;;4.72;;
22026;SDS011;11177;50.966;10.070;2023-07-08T06:00:59;5.28;;;4.43;;
22026;SDS011;11177;50.966;10.070;2023-07-08T06:03:26;4.57;;;3.95;;
22026;SDS011;11177;50.966;10.070;2023-07-08T06:05:53;5.43;;;4.20;;
22026;SDS011;11177;50.966;10.070;2023-07-08T06:08:20;8.45;;;4.65;;
22026;SDS011;11177;50.966;10.070;2023-07-08T06:10:47;6.47;;;4.28;;
22026;SDS011;11177;50.966;10.070;2023-07-08T06:13:16;5.97;;;4.35;;
22026;SDS011;11177;50.966;10.070;2023-07-08T06:15:43;12.68;;;4.43;;
22026;SDS011;11177;50.966;10.070;2023-07-08T06:18:10;5.30;;;4.03;;
22026;SDS011;11177;50.966;10.070;2023-07-08T06:20:37;9.85;;;4.32;;
22026;SDS011;11177;50.966;10.070;2023-07-08T06:23:05;5.40;;;4.00;;
22026;SDS011;11177;50.966;10.070;2023-07-08T06:25:32;7.40;;;4.18;;
22026;SDS011;11177;50.966;10.070;2023-07-08T06:27:59;7.30;;;3.60;;
22026;SDS011;11177;50.966;10.070;2023-07-08T06:30:26;7.50;;;3.80;;
22026;SDS011;11177;50.966;10.070;2023-07-08T06:32:53;10.43;;;4.00;;
22026;SDS011;11177;50.966;10.070;2023-07-08T06:35:20;7.45;;;4.22;;
22026;SDS011;11177;50.966;10.070;2023-07-08T06:37:47;6.68;;;3.90;;
22026;SDS011;11177;50.966;10.070;2023-07-08T06:40:14;7.20;;;3.95;;
22026;SDS011;11177;50.966;10.070;2023-07-08T06:42:40;13.98;;;4.32;;
22026;SDS011;11177;50.966;10.070;2023-07-08T06:45:07;8.02;;;4.32;;
22026;SDS011;11177;50.966;10.070;2023-07-08T06:47:35;11.48;;;4.72;;
22026;SDS011;11177;50.966;10.070;2023-07-08T06:50:02;8.98;;;3.58;;
22026;SDS011;11177;50.966;10.070;2023-07-08T06:52:29;7.38;;;4.07;;
22026;SDS011;11177;50.966;10.070;2023-07-08T06:55:02;6.57;;;3.75;;
22026;SDS011;11177;50.966;10.070;2023-07-08T06:57:30;6.18;;;3.63;;
22026;SDS011;11177;50.966;10.070;2023-07-08T06:59:58;7.53;;;3.97;;
22026;SDS011;11177;50.966;10.070;2023-07-08T07:02:25;5.97;;;4.00;;
22026;SDS011;11177;50.966;10.070;2023-07-08T07:04:53;9.63;;;4.30;;
22026;SDS011;11177;50.966;10.070;2023-07-08T07:07:21;5.78;;;3.88;;
22026;SDS011;11177;50.966;10.070;2023-07-08T07:09:48;5.82;;;3.78;;
22026;SDS011;11177;50.966;10.070;2023-07-08T07:12:15;12.30;;;4.20;;
22026;SDS011;11177;50.966;10.070;2023-07-08T07:14:43;7.43;;;3.63;;
22026;SDS011;11177;50.966;10.070;2023-07-08T07:17:13;14.68;;;4.43;;
22026;SDS011;11177;50.966;10.070;2023-07-08T07:19:40;6.47;;;3.78;;
22026;SDS011;11177;50.966;10.070;2023-07-08T07:22:07;7.88;;;4.20;;
22026;SDS011;11177;50.966;10.070;2023-07-08T07:24:34;9.80;;;4.05;;
22026;SDS011;11177;50.966;10.070;2023-07-08T07:27:01;7.30;;;3.75;;
22026;SDS011;11177;50.966;10.070;2023-07-08T07:29:32;10.05;;;3.40;;
22026;SDS011;11177;50.966;10.070;2023-07-08T07:32:09;5.03;;;3.72;;
22026;SDS011;11177;50.966;10.070;2023-07-08T07:34:36;6.20;;;3.67;;
22026;SDS011;11177;50.966;10.070;2023-07-08T07:37:05;18.83;;;3.90;;
22026;SDS011;11177;50.966;10.070;2023-07-08T07:39:33;5.47;;;3.60;;
22026;SDS011;11177;50.966;10.070;2023-07-08T07:42:00;5.68;;;3.95;;
22026;SDS011;11177;50.966;10.070;2023-07-08T07:44:26;5.07;;;3.70;;
22026;SDS011;11177;50.966;10.070;2023-07-08T07:46:53;6.53;;;3.78;;
22026;SDS011;11177;50.966;10.070;2023-07-08T07:49:21;6.75;;;3.50;;
22026;SDS011;11177;50.966;10.070;2023-07-08T07:51:48;6.65;;;3.20;;
22026;SDS011;11177;50.966;10.070;2023-07-08T07:54:16;6.13;;;3.70;;
22026;SDS011;11177;50.966;10.070;2023-07-08T07:56:43;6.65;;;3.80;;
22026;SDS011;11177;50.966;10.070;2023-07-08T07:59:11;5.90;;;3.63;;
22026;SDS011;11177;50.966;10.070;2023-07-08T08:01:38;5.63;;;3.50;;
22026;SDS011;11177;50.966;10.070;2023-07-08T08:04:10;7.05;;;3.85;;
22026;SDS011;11177;50.966;10.070;2023-07-08T08:06:38;10.63;;;3.80;;
22026;SDS011;11177;50.966;10.070;2023-07-08T08:09:06;8.73;;;3.95;;
22026;SDS011;11177;50.966;10.070;2023-07-08T08:11:35;4.43;;;3.55;;
22026;SDS011;11177;50.966;10.070;2023-07-08T08:14:02;4.70;;;3.42;;
22026;SDS011;11177;50.966;10.070;2023-07-08T08:16:30;5.00;;;3.95;;
22026;SDS011;11177;50.966;10.070;2023-07-08T08:18:59;6.72;;;3.65;;
22026;SDS011;11177;50.966;10.070;2023-07-08T08:21:27;4.90;;;3.60;;
22026;SDS011;11177;50.966;10.070;2023-07-08T08:23:54;5.18;;;3.83;;
22026;SDS011;11177;50.966;10.070;2023-07-08T08:26:21;5.68;;;3.45;;
22026;SDS011;11177;50.966;10.070;2023-07-08T08:28:48;10.65;;;3.40;;
22026;SDS011;11177;50.966;10.070;2023-07-08T08:31:15;4.13;;;3.30;;
22026;SDS011;11177;50.966;10.070;2023-07-08T08:33:45;5.35;;;3.88;;
22026;SDS011;11177;50.966;10.070;2023-07-08T08:36:15;4.95;;;3.53;;
22026;SDS011;11177;50.966;10.070;2023-07-08T08:38:42;7.28;;;3.50;;
22026;SDS011;11177;50.966;10.070;2023-07-08T08:41:13;7.53;;;4.10;;
22026;SDS011;11177;50.966;10.070;2023-07-08T08:43:41;6.35;;;3.80;;
22026;SDS011;11177;50.966;10.070;2023-07-08T08:46:18;4.22;;;3.65;;
22026;SDS011;11177;50.966;10.070;2023-07-08T08:49:02;4.15;;;3.33;;
22026;SDS011;11177;50.966;10.070;2023-07-08T08:51:39;6.30;;;3.83;;
22026;SDS011;11177;50.966;10.070;2023-07-08T08:54:07;6.50;;;3.13;;
22026;SDS011;11177;50.966;10.070;2023-07-08T08:56:45;5.07;;;3.63;;
22026;SDS011;11177;50.966;10.070;2023-07-08T09:02:53;6.07;;;3.53;;
22026;SDS011;11177;50.966;10.070;2023-07-08T09:05:09;4.93;;;3.58;;
22026;SDS011;11177;50.966;10.070;2023-07-08T09:07:45;5.82;;;3.72;;
22026;SDS011;11177;50.966;10.070;2023-07-08T09:10:26;5.60;;;3.60;;
22026;SDS011;11177;50.966;10.070;2023-07-08T09:13:07;6.97;;;3.90;;
22026;SDS011;11177;50.966;10.070;2023-07-08T09:15:40;4.45;;;3.50;;
22026;SDS011;11177;50.966;10.070;2023-07-08T09:18:20;5.40;;;3.63;;
22026;SDS011;11177;50.966;10.070;2023-07-08T09:20:54;7.43;;;3.60;;
22026;SDS011;11177;50.966;10.070;2023-07-08T09:23:26;6.13;;;3.33;;
22026;SDS011;11177;50.966;10.070;2023-07-08T09:26:03;5.97;;;3.30;;
22026;SDS011;11177;50.966;10.070;2023-07-08T09:28:39;6.47;;;3.50;;
22026;SDS011;11177;50.966;10.070;2023-07-08T09:31:08;5.18;;;3.60;;
22026;SDS011;11177;50.966;10.070;2023-07-08T09:33:41;5.43;;;3.38;;
22026;SDS011;11177;50.966;10.070;2023-07-08T09:36:18;6.13;;;3.25;;
22026;SDS011;11177;50.966;10.070;2023-07-08T09:38:50;3.65;;;3.35;;
22026;SDS011;11177;50.966;10.070;2023-07-08T09:41:34;5.15;;;3.60;;
22026;SDS011;11177;50.966;10.070;2023-07-08T09:46:42;4.13;;;3.47;;
22026;SDS011;11177;50.966;10.070;2023-07-08T09:49:18;5.72;;;3.60;;
22026;SDS011;11177;50.966;10.070;2023-07-08T09:51:46;8.68;;;3.58;;
22026;SDS011;11177;50.966;10.070;2023-07-08T09:54:17;6.88;;;3.75;;
22026;SDS011;11177;50.966;10.070;2023-07-08T09:56:52;3.85;;;3.45;;
22026;SDS011;11177;50.966;10.070;2023-07-08T09:59:22;3.83;;;3.45;;
22026;SDS011;11177;50.966;10.070;2023-07-08T10:01:52;5.43;;;3.40;;
22026;SDS011;11177;50.966;10.070;2023-07-08T10:04:20;5.20;;;3.63;;
22026;SDS011;11177;50.966;10.070;2023-07-08T10:06:48;5.97;;;3.53;;
22026;SDS011;11177;50.966;10.070;2023-07-08T10:09:18;5.28;;;3.50;;
22026;SDS011;11177;50.966;10.070;2023-07-08T10:11:47;3.53;;;3.22;;
22026;SDS011;11177;50.966;10.070;2023-07-08T10:14:26;4.10;;;3.50;;
22026;SDS011;11177;50.966;10.070;2023-07-08T10:16:55;4.75;;;3.40;;
22026;SDS011;11177;50.966;10.070;2023-07-08T10:19:23;3.30;;;3.00;;
22026;SDS011;11177;50.966;10.070;2023-07-08T10:24:55;4.30;;;3.50;;
22026;SDS011;11177;50.966;10.070;2023-07-08T10:30:55;6.78;;;3.50;;
22026;SDS011;11177;50.966;10.070;2023-07-08T10:33:38;4.72;;;3.50;;
22026;SDS011;11177;50.966;10.070;2023-07-08T10:36:29;3.58;;;3.20;;
22026;SDS011;11177;50.966;10.070;2023-07-08T10:39:22;3.70;;;3.30;;
22026;SDS011;11177;50.966;10.070;2023-07-08T10:42:43;5.35;;;3.20;;
22026;SDS011;11177;50.966;10.070;2023-07-08T10:45:30;6.50;;;3.80;;
22026;SDS011;11177;50.966;10.070;2023-07-08T10:48:06;5.45;;;3.33;;
22026;SDS011;11177;50.966;10.070;2023-07-08T10:51:14;4.18;;;3.60;;
22026;SDS011;11177;50.966;10.070;2023-07-08T10:56:54;3.60;;;3.30;;
22026;SDS011;11177;50.966;10.070;2023-07-08T11:02:51;3.97;;;3.30;;
22026;SDS011;11177;50.966;10.070;2023-07-08T11:05:27;3.63;;;3.33;;
22026;SDS011;11177;50.966;10.070;2023-07-08T11:08:00;4.07;;;3.33;;
22026;SDS011;11177;50.966;10.070;2023-07-08T11:10:35;4.28;;;3.60;;
22026;SDS011;11177;50.966;10.070;2023-07-08T11:13:42;4.60;;;3.70;;
22026;SDS011;11177;50.966;10.070;2023-07-08T11:16:21;5.13;;;3.42;;
22026;SDS011;11177;50.966;10.070;2023-07-08T11:18:57;4.10;;;3.70;;
22026;SDS011;11177;50.966;10.070;2023-07-08T11:21:34;3.97;;;3.50;;
22026;SDS011;11177;50.966;10.070;2023-07-08T11:24:29;6.55;;;4.05;;
22026;SDS011;11177;50.966;10.070;2023-07-08T11:26:59;8.60;;;4.40;;
22026;SDS011;11177;50.966;10.070;2023-07-08T11:29:32;3.88;;;3.50;;
22026;SDS011;11177;50.966;10.070;2023-07-08T11:32:05;4.15;;;3.65;;
22026;SDS011;11177;50.966;10.070;2023-07-08T11:34:33;4.13;;;3.40;;
22026;SDS011;11177;50.966;10.070;2023-07-08T11:37:01;4.70;;;3.53;;
22026;SDS011;11177;50.966;10.070;2023-07-08T11:39:41;3.97;;;3.28;;
22026;SDS011;11177;50.966;10.070;2023-07-08T11:42:20;3.88;;;3.35;;
22026;SDS011;11177;50.966;10.070;2023-07-08T11:44:56;4.35;;;3.65;;
22026;SDS011;11177;50.966;10.070;2023-07-08T11:47:25;5.38;;;3.55;;
22026;SDS011;11177;50.966;10.070;2023-07-08T11:49:53;5.32;;;3.40;;
22026;SDS011;11177;50.966;10.070;2023-07-08T11:52:21;4.03;;;3.28;;
22026;SDS011;11177;50.966;10.070;2023-07-08T11:55:35;3.90;;;3.50;;
22026;SDS011;11177;50.966;10.070;2023-07-08T11:57:47;5.55;;;3.72;;
22026;SDS011;11177;50.966;10.070;2023-07-08T12:00:23;5.75;;;3.55;;
22026;SDS011;11177;50.966;10.070;2023-07-08T12:02:55;7.43;;;3.80;;
22026;SDS011;11177;50.966;10.070;2023-07-08T12:08:01;19.83;;;4.03;;
22026;SDS011;11177;50.966;10.070;2023-07-08T12:10:40;8.35;;;3.70;;
22026;SDS011;11177;50.966;10.070;2023-07-08T12:13:13;4.20;;;3.53;;
22026;SDS011;11177;50.966;10.070;2023-07-08T12:15:43;3.83;;;3.45;;
22026;SDS011;11177;50.966;10.070;2023-07-08T12:18:14;4.53;;;3.60;;
22026;SDS011;11177;50.966;10.070;2023-07-08T12:20:44;5.03;;;3.45;;
22026;SDS011;11177;50.966;10.070;2023-07-08T12:23:15;5.80;;;3.70;;
22026;SDS011;11177;50.966;10.070;2023-07-08T12:25:44;5.00;;;3.75;;
22026;SDS011;11177;50.966;10.070;2023-07-08T12:28:11;4.00;;;3.55;;
22026;SDS011;11177;50.966;10.070;2023-07-08T12:30:39;7.72;;;3.60;;
22026;SDS011;11177;50.966;10.070;2023-07-08T12:33:14;4.03;;;3.63;;
22026;SDS011;11177;50.966;10.070;2023-07-08T12:35:42;3.50;;;3.20;;
22026;SDS011;11177;50.966;10.070;2023-07-08T12:41:01;4.10;;;3.70;;
22026;SDS011;11177;50.966;10.070;2023-07-08T12:43:29;10.23;;;3.95;;
22026;SDS011;11177;50.966;10.070;2023-07-08T12:45:56;5.10;;;3.70;;
22026;SDS011;11177;50.966;10.070;2023-07-08T12:48:23;3.67;;;3.28;;
22026;SDS011;11177;50.966;10.070;2023-07-08T12:50:50;4.25;;;3.30;;
22026;SDS011;11177;50.966;10.070;2023-07-08T12:53:17;4.70;;;3.50;;
22026;SDS011;11177;50.966;10.070;2023-07-08T12:55:45;4.22;;;3.42;;
22026;SDS011;11177;50.966;10.070;2023-07-08T12:58:13;3.70;;;3.25;;
22026;SDS011;11177;50.966;10.070;2023-07-08T13:00:41;3.95;;;3.58;;
22026;SDS011;11177;50.966;10.070;2023-07-08T13:03:12;5.38;;;3.83;;
22026;SDS011;11177;50.966;10.070;2023-07-08T13:05:41;7.22;;;3.20;;
22026;SDS011;11177;50.966;10.070;2023-07-08T13:08:16;4.63;;;3.33;;
22026;SDS011;11177;50.966;10.070;2023-07-08T13:10:44;5.70;;;3.42;;
22026;SDS011;11177;50.966;10.070;2023-07-08T13:13:12;5.10;;;3.50;;
22026;SDS011;11177;50.966;10.070;2023-07-08T13:15:42;4.30;;;3.55;;
22026;SDS011;11177;50.966;10.070;2023-07-08T13:18:27;4.00;;;3.60;;
22026;SDS011;11177;50.966;10.070;2023-07-08T13:20:59;18.42;;;4.57;;
22026;SDS011;11177;50.966;10.070;2023-07-08T13:23:27;4.65;;;3.58;;
22026;SDS011;11177;50.966;10.070;2023-07-08T13:25:54;4.47;;;3.60;;
22026;SDS011;11177;50.966;10.070;2023-07-08T13:28:37;6.38;;;3.75;;
22026;SDS011;11177;50.966;10.070;2023-07-08T13:31:16;17.75;;;3.85;;
22026;SDS011;11177;50.966;10.070;2023-07-08T13:33:54;4.63;;;3.65;;
22026;SDS011;11177;50.966;10.070;2023-07-08T13:36:28;4.68;;;3.60;;
22026;SDS011;11177;50.966;10.070;2023-07-08T13:38:59;3.72;;;3.20;;
22026;SDS011;11177;50.966;10.070;2023-07-08T13:41:31;4.10;;;3.65;;
22026;SDS011;11177;50.966;10.070;2023-07-08T13:44:03;4.25;;;3.65;;
22026;SDS011;11177;50.966;10.070;2023-07-08T13:46:36;4.68;;;3.47;;
22026;SDS011;11177;50.966;10.070;2023-07-08T13:49:10;44.95;;;8.13;;
22026;SDS011;11177;50.966;10.070;2023-07-08T13:52:31;28.60;;;6.23;;
22026;SDS011;11177;50.966;10.070;2023-07-08T13:54:52;42.13;;;7.40;;
22026;SDS011;11177;50.966;10.070;2023-07-08T13:57:22;4.38;;;3.85;;
22026;SDS011;11177;50.966;10.070;2023-07-08T13:59:54;3.90;;;3.50;;
22026;SDS011;11177;50.966;10.070;2023-07-08T14:02:22;4.80;;;3.75;;
22026;SDS011;11177;50.966;10.070;2023-07-08T14:04:51;5.00;;;4.28;;
22026;SDS011;11177;50.966;10.070;2023-07-08T14:07:21;4.07;;;3.47;;
22026;SDS011;11177;50.966;10.070;2023-07-08T14:09:49;5.68;;;3.70;;
22026;SDS011;11177;50.966;10.070;2023-07-08T14:12:16;4.35;;;3.70;;
22026;SDS011;11177;50.966;10.070;2023-07-08T14:14:43;6.75;;;3.90;;
22026;SDS011;11177;50.966;10.070;2023-07-08T14:17:15;7.70;;;4.05;;
22026;SDS011;11177;50.966;10.070;2023-07-08T14:19:46;4.57;;;3.45;;
22026;SDS011;11177;50.966;10.070;2023-07-08T14:24:50;7.38;;;3.75;;
22026;SDS011;11177;50.966;10.070;2023-07-08T14:27:17;4.57;;;3.63;;
22026;SDS011;11177;50.966;10.070;2023-07-08T14:29:49;4.20;;;3.80;;
22026;SDS011;11177;50.966;10.070;2023-07-08T14:32:26;4.22;;;3.70;;
22026;SDS011;11177;50.966;10.070;2023-07-08T14:34:57;5.40;;;3.78;;
22026;SDS011;11177;50.966;10.070;2023-07-08T14:37:27;3.88;;;3.38;;
22026;SDS011;11177;50.966;10.070;2023-07-08T14:39:54;5.35;;;3.28;;
22026;SDS011;11177;50.966;10.070;2023-07-08T14:42:20;4.78;;;3.58;;
22026;SDS011;11177;50.966;10.070;2023-07-08T14:44:48;5.28;;;3.50;;
22026;SDS011;11177;50.966;10.070;2023-07-08T14:47:17;3.90;;;3.20;;
22026;SDS011;11177;50.966;10.070;2023-07-08T14:49:45;5.80;;;3.30;;
22026;SDS011;11177;50.966;10.070;2023-07-08T14:52:12;5.15;;;3.22;;
22026;SDS011;11177;50.966;10.070;2023-07-08T14:54:39;5.65;;;3.28;;
22026;SDS011;11177;50.966;10.070;2023-07-08T14:57:06;4.63;;;3.63;;
22026;SDS011;11177;50.966;10.070;2023-07-08T14:59:34;5.97;;;3.50;;
22026;SDS011;11177;50.966;10.070;2023-07-08T15:02:02;3.67;;;3.38;;
22026;SDS011;11177;50.966;10.070;2023-07-08T15:04:46;5.80;;;3.60;;
22026;SDS011;11177;50.966;10.070;2023-07-08T15:07:13;6.57;;;3.40;;
22026;SDS011;11177;50.966;10.070;2023-07-08T15:09:40;5.35;;;3.42;;
22026;SDS011;11177;50.966;10.070;2023-07-08T15:12:08;4.78;;;3.22;;
22026;SDS011;11177;50.966;10.070;2023-07-08T15:14:37;4.45;;;3.58;;
22026;SDS011;11177;50.966;10.070;2023-07-08T15:17:15;5.60;;;3.20;;
22026;SDS011;11177;50.966;10.070;2023-07-08T15:19:45;6.55;;;3.10;;
22026;SDS011;11177;50.966;10.070;2023-07-08T15:22:13;3.50;;;3.20;;
22026;SDS011;11177;50.966;10.070;2023-07-08T15:24:40;6.28;;;3.20;;